createdAt,value
2022-11-04T00:01:20.437Z,95084.56
2022-11-04T00:03:47.538Z,95089.50
2022-11-04T00:06:14.876Z,95083.50
2022-11-04T00:08:42.089Z,95083.66
2022-11-04T00:11:10.981Z,95082.50
2022-11-04T00:13:38.020Z,95085.78
2022-11-04T00:16:05.761Z,95089.81
2022-11-04T00:18:36.162Z,95084.97
2022-11-04T00:21:03.382Z,95083.06
2022-11-04T00:23:30.697Z,95077.00
2022-11-04T00:25:58.174Z,95062.38
2022-11-04T00:28:25.303Z,95057.56
2022-11-04T00:30:56.724Z,95073.66
2022-11-04T00:33:23.961Z,95059.16
2022-11-04T00:35:54.782Z,95054.81
2022-11-04T00:38:22.673Z,95045.44
2022-11-04T00:40:49.981Z,95040.44
2022-11-04T00:43:16.981Z,95044.63
2022-11-04T00:45:44.321Z,95031.28
2022-11-04T00:48:11.720Z,95031.38
2022-11-04T00:50:39.161Z,95022.69
2022-11-04T00:53:08.101Z,95030.09
2022-11-04T00:55:35.802Z,95040.63
2022-11-04T00:58:02.961Z,95041.19
2022-11-04T01:00:30.262Z,95040.75
2022-11-04T01:02:57.621Z,95046.78
2022-11-04T01:05:24.643Z,95036.97
2022-11-04T01:07:51.681Z,95039.63
2022-11-04T01:10:20.320Z,95057.34
2022-11-04T01:12:47.354Z,95053.69
2022-11-04T01:15:14.561Z,95055.06
2022-11-04T01:17:41.601Z,95052.66
2022-11-04T01:20:09.960Z,95052.28
2022-11-04T01:22:37.120Z,95036.84
2022-11-04T01:25:05.380Z,95037.41
2022-11-04T01:27:33.881Z,95029.66
2022-11-04T01:30:01.064Z,95028.38
2022-11-04T01:32:28.580Z,95034.91
2022-11-04T01:34:55.620Z,95028.38
2022-11-04T01:37:22.662Z,95031.47
2022-11-04T01:39:49.740Z,95035.34
2022-11-04T01:42:22.221Z,95036.41
2022-11-04T01:44:54.101Z,95031.00
2022-11-04T01:47:29.101Z,95030.75
2022-11-04T01:50:00.781Z,95018.56
2022-11-04T01:52:36.801Z,95017.09
2022-11-04T01:55:11.380Z,95017.09
2022-11-04T01:57:44.862Z,95019.34
2022-11-04T02:00:15.253Z,95008.47
2022-11-04T02:02:54.701Z,95016.09
2022-11-04T02:05:23.242Z,94997.78
2022-11-04T02:07:55.180Z,94987.25
2022-11-04T02:10:26.361Z,94981.88
2022-11-04T02:12:55.179Z,94979.81
2022-11-04T02:15:37.662Z,94971.41
2022-11-04T02:18:36.439Z,94973.13
2022-11-04T02:21:41.580Z,94974.28
2022-11-04T02:24:43.419Z,94962.69
2022-11-04T02:27:37.712Z,94962.19
2022-11-04T02:30:14.440Z,94957.25
2022-11-04T02:33:15.061Z,94947.91
2022-11-04T02:35:50.621Z,94956.06
2022-11-04T02:38:30.700Z,94939.41
2022-11-04T02:41:09.120Z,94949.19
2022-11-04T02:43:47.661Z,94936.03
2022-11-04T02:46:24.060Z,94932.38
2022-11-04T02:49:00.111Z,94923.34
2022-11-04T02:51:33.000Z,94924.78
2022-11-04T02:54:08.060Z,94920.22
2022-11-04T02:56:41.260Z,94915.19
2022-11-04T02:59:14.720Z,94910.63
2022-11-04T03:01:48.041Z,94898.25
2022-11-04T03:04:22.740Z,94897.28
2022-11-04T03:06:54.200Z,94899.88
2022-11-04T03:09:23.681Z,94896.81
2022-11-04T03:11:57.180Z,94887.56
2022-11-04T03:14:33.360Z,94893.69
2022-11-04T03:17:08.201Z,94892.19
2022-11-04T03:19:45.220Z,94890.03
2022-11-04T03:22:17.520Z,94895.69
2022-11-04T03:24:47.445Z,94885.78
2022-11-04T03:27:24.959Z,94883.09
2022-11-04T03:30:01.282Z,94880.34
2022-11-04T03:32:41.541Z,94873.50
2022-11-04T03:35:09.900Z,94870.06
2022-11-04T03:37:37.462Z,94867.34
2022-11-04T03:40:06.120Z,94854.19
2022-11-04T03:42:37.420Z,94859.13
2022-11-04T03:45:05.681Z,94852.47
2022-11-04T03:47:34.842Z,94854.28
2022-11-04T03:50:11.199Z,94845.03
2022-11-04T03:52:38.900Z,94834.66
2022-11-04T03:55:10.663Z,94834.66
2022-11-04T03:57:52.331Z,94826.44
2022-11-04T04:00:21.961Z,94828.50
2022-11-04T04:03:11.639Z,94825.78
2022-11-04T04:05:47.819Z,94826.34
2022-11-04T04:08:28.723Z,94827.16
2022-11-04T04:11:07.359Z,94822.66
2022-11-04T04:13:44.262Z,94824.84
2022-11-04T04:16:19.294Z,94822.66
2022-11-04T04:18:58.483Z,94803.22
2022-11-04T04:21:34.319Z,94807.22
2022-11-04T04:24:07.200Z,94808.47
2022-11-04T04:26:39.340Z,94806.00
2022-11-04T04:29:09.184Z,94812.78
2022-11-04T04:31:39.722Z,94814.16
2022-11-04T04:34:09.820Z,94816.63
2022-11-04T04:36:47.033Z,94811.50
2022-11-04T04:39:20.881Z,94802.81
2022-11-04T04:41:49.101Z,94799.84
2022-11-04T04:44:23.359Z,94798.50
2022-11-04T04:46:55.820Z,94790.59
2022-11-04T04:49:24.360Z,94789.72
2022-11-04T04:51:51.420Z,94790.75
2022-11-04T04:54:18.440Z,94792.59
2022-11-04T04:56:45.539Z,94789.72
2022-11-04T04:59:12.539Z,94792.69
2022-11-04T05:01:39.660Z,94788.94
2022-11-04T05:04:06.780Z,94791.06
2022-11-04T05:06:35.180Z,94793.69
2022-11-04T05:09:02.220Z,94793.78
2022-11-04T05:11:29.301Z,94792.69
2022-11-04T05:13:56.363Z,94787.66
2022-11-04T05:16:23.442Z,94784.69
2022-11-04T05:18:52.141Z,94790.34
2022-11-04T05:21:19.221Z,94788.19
2022-11-04T05:23:47.661Z,94787.81
2022-11-04T05:26:14.706Z,94782.22
2022-11-04T05:28:41.762Z,94765.22
2022-11-04T05:31:08.799Z,94764.50
2022-11-04T05:33:35.821Z,94769.84
2022-11-04T05:36:06.680Z,94777.28
2022-11-04T05:38:33.761Z,94765.88
2022-11-04T05:41:02.206Z,94769.53
2022-11-04T05:43:29.720Z,94760.06
2022-11-04T05:45:59.320Z,94765.78
2022-11-04T05:48:26.720Z,94755.25
2022-11-04T05:50:54.839Z,94748.63
2022-11-04T05:53:21.986Z,94750.22
2022-11-04T05:55:49.160Z,94741.69
2022-11-04T05:58:17.624Z,94733.16
2022-11-04T06:00:44.641Z,94739.75
2022-11-04T06:03:13.804Z,94730.75
2022-11-04T06:05:43.460Z,94733.56
2022-11-04T06:08:10.873Z,94726.94
2022-11-04T06:10:38.202Z,94724.84
2022-11-04T06:13:05.321Z,94732.91
2022-11-04T06:15:33.800Z,94729.81
2022-11-04T06:18:00.821Z,94722.16
2022-11-04T06:20:27.928Z,94724.22
2022-11-04T06:22:54.925Z,94719.44
2022-11-04T06:25:21.962Z,94720.00
2022-11-04T06:27:48.952Z,94719.91
2022-11-04T06:30:16.003Z,94719.75
2022-11-04T06:32:44.466Z,94711.06
2022-11-04T06:35:11.568Z,94718.78
2022-11-04T06:37:38.641Z,94714.72
2022-11-04T06:40:07.343Z,94713.34
2022-11-04T06:42:34.381Z,94721.75
2022-11-04T06:45:01.385Z,94723.81
2022-11-04T06:47:28.361Z,94720.38
2022-11-04T06:49:56.821Z,94707.88
2022-11-04T06:52:24.221Z,94699.63
2022-11-04T06:54:51.221Z,94710.56
2022-11-04T06:57:18.262Z,94706.69
2022-11-04T06:59:45.262Z,94708.59
2022-11-04T07:02:12.405Z,94714.88
2022-11-04T07:04:39.535Z,94712.81
2022-11-04T07:07:08.001Z,94708.16
2022-11-04T07:09:35.001Z,94707.16
2022-11-04T07:12:02.026Z,94707.59
2022-11-04T07:14:29.060Z,94703.78
2022-11-04T07:16:56.082Z,94701.16
2022-11-04T07:19:23.100Z,94705.31
2022-11-04T07:21:50.139Z,94703.94
2022-11-04T07:24:18.680Z,94703.25
2022-11-04T07:26:45.663Z,94694.78
2022-11-04T07:29:12.760Z,94697.31
2022-11-04T07:31:39.840Z,94701.31
2022-11-04T07:34:06.880Z,94709.38
2022-11-04T07:36:33.901Z,94705.13
2022-11-04T07:39:00.944Z,94697.50
2022-11-04T07:41:29.722Z,94691.00
2022-11-04T07:43:56.741Z,94694.97
2022-11-04T07:46:23.801Z,94692.88
2022-11-04T07:48:50.861Z,94690.38
2022-11-04T07:51:20.920Z,94696.19
2022-11-04T07:53:48.139Z,94693.06
2022-11-04T07:56:15.754Z,94689.25
2022-11-04T07:58:44.180Z,94685.00
2022-11-04T08:01:14.512Z,94687.00
2022-11-04T08:03:41.863Z,94698.75
2022-11-04T08:06:11.561Z,94702.63
2022-11-04T08:08:38.682Z,94696.56
2022-11-04T08:11:12.839Z,94694.63
2022-11-04T08:13:45.420Z,94699.91
2022-11-04T08:16:15.280Z,94692.97
2022-11-04T08:18:43.320Z,94661.31
2022-11-04T08:21:11.701Z,94675.91
2022-11-04T08:23:39.285Z,94675.00
2022-11-04T08:26:09.201Z,94674.97
2022-11-04T08:28:36.377Z,94673.81
2022-11-04T08:31:07.740Z,94676.19
2022-11-04T08:33:35.409Z,94672.88
2022-11-04T08:36:05.274Z,94652.78
2022-11-04T08:38:32.809Z,94643.53
2022-11-04T08:41:01.083Z,94641.78
2022-11-04T08:43:28.120Z,94649.81
2022-11-04T08:45:56.200Z,94654.97
2022-11-04T08:48:24.706Z,94654.06
2022-11-04T08:50:54.842Z,94641.72
2022-11-04T08:53:22.026Z,94640.81
2022-11-04T08:55:49.183Z,94639.78
2022-11-04T08:58:16.424Z,94633.41
2022-11-04T09:00:44.001Z,94634.44
2022-11-04T09:03:11.394Z,94633.69
2022-11-04T09:05:42.441Z,94631.25
2022-11-04T09:08:09.501Z,94642.41
2022-11-04T09:10:36.521Z,94625.59
2022-11-04T09:13:03.682Z,94626.28
2022-11-04T09:15:30.763Z,94623.16
2022-11-04T09:17:57.805Z,94620.94
2022-11-04T09:20:24.882Z,94625.13
2022-11-04T09:22:53.342Z,94615.88
2022-11-04T09:25:20.400Z,94610.44
2022-11-04T09:27:47.524Z,94610.44
2022-11-04T09:30:14.664Z,94614.31
2022-11-04T09:32:43.143Z,94603.22
2022-11-04T09:35:10.203Z,94613.94
2022-11-04T09:37:37.262Z,94617.84
2022-11-04T09:40:07.580Z,94626.50
2022-11-04T09:42:51.575Z,94633.28
2022-11-04T09:45:25.321Z,94638.25
2022-11-04T09:47:58.721Z,94640.03
2022-11-04T09:50:30.061Z,94643.72
2022-11-04T09:53:05.660Z,94640.06
2022-11-04T09:55:41.945Z,94629.59
2022-11-04T09:58:13.537Z,94632.97
2022-11-04T10:00:48.571Z,94621.88
2022-11-04T10:03:32.887Z,94620.44
2022-11-04T10:06:19.943Z,94607.78
2022-11-04T10:09:03.004Z,94602.81
2022-11-04T10:11:39.544Z,94619.69
2022-11-04T10:14:25.233Z,94630.50
2022-11-04T10:17:07.283Z,94634.72
2022-11-04T10:19:48.502Z,94633.69
2022-11-04T10:22:31.627Z,94628.75
2022-11-04T10:25:10.461Z,94633.63
2022-11-04T10:27:44.264Z,94627.56
2022-11-04T10:30:17.921Z,94630.94
2022-11-04T10:32:59.530Z,94630.50
2022-11-04T10:35:35.147Z,94630.53
2022-11-04T10:38:16.474Z,94632.44
2022-11-04T10:40:48.503Z,94625.53
2022-11-04T10:43:28.821Z,94624.25
2022-11-04T10:46:09.320Z,94628.63
2022-11-04T10:48:45.040Z,94621.28
2022-11-04T10:51:12.081Z,94621.06
2022-11-04T10:53:39.080Z,94612.34
2022-11-04T10:56:18.248Z,94618.09
2022-11-04T10:58:47.923Z,94617.31
2022-11-04T11:01:27.882Z,94624.28
2022-11-04T11:03:55.475Z,94621.56
2022-11-04T11:06:29.115Z,94620.47
2022-11-04T11:08:59.845Z,94613.84
2022-11-04T11:11:39.086Z,94612.00
2022-11-04T11:14:16.743Z,94605.63
2022-11-04T11:16:43.923Z,94617.19
2022-11-04T11:19:17.569Z,94628.28
2022-11-04T11:21:47.363Z,94627.31
2022-11-04T11:24:19.483Z,94628.59
2022-11-04T11:26:49.183Z,94635.69
2022-11-04T11:29:24.402Z,94622.84
2022-11-04T11:31:54.984Z,94626.50
2022-11-04T11:34:26.975Z,94629.88
2022-11-04T11:36:56.966Z,94630.91
2022-11-04T11:39:28.802Z,94639.50
2022-11-04T11:42:00.407Z,94635.00
2022-11-04T11:44:33.783Z,94633.53
2022-11-04T11:47:03.110Z,94634.97
2022-11-04T11:49:34.623Z,94642.06
2022-11-04T11:52:31.522Z,94641.28
2022-11-04T11:55:07.107Z,94634.94
2022-11-04T11:57:44.647Z,94639.19
2022-11-04T12:03:18.488Z,94635.19
2022-11-04T12:09:19.161Z,94639.72
2022-11-04T12:12:15.422Z,94636.19
2022-11-04T12:15:09.867Z,94637.22
2022-11-04T12:17:53.527Z,94642.78
2022-11-04T12:20:37.761Z,94638.19
2022-11-04T12:23:17.802Z,94640.16
2022-11-04T12:25:58.395Z,94629.47
2022-11-04T12:28:42.724Z,94630.78
2022-11-04T12:31:25.859Z,94636.63
2022-11-04T12:34:09.762Z,94639.03
2022-11-04T12:36:53.762Z,94643.63
2022-11-04T12:39:57.533Z,94640.31
2022-11-04T12:42:40.387Z,94652.00
2022-11-04T12:45:25.828Z,94657.72
2022-11-04T12:48:00.341Z,94663.63
2022-11-04T12:50:47.387Z,94664.13
2022-11-04T12:53:44.886Z,94669.59
2022-11-04T12:56:15.866Z,94682.72
2022-11-04T12:59:20.422Z,94682.94
2022-11-04T13:01:54.661Z,94676.34
2022-11-04T13:04:26.628Z,94677.59
2022-11-04T13:07:01.202Z,94677.16
2022-11-04T13:09:36.764Z,94685.13
2022-11-04T13:12:09.443Z,94680.56
2022-11-04T13:14:46.662Z,94686.94
2022-11-04T13:17:19.234Z,94685.47
2022-11-04T13:19:50.803Z,94690.97
2022-11-04T13:22:25.864Z,94704.50
2022-11-04T13:25:00.167Z,94686.72
2022-11-04T13:27:35.374Z,94691.88
2022-11-04T13:30:08.105Z,94689.44
2022-11-04T13:32:47.026Z,94693.34
2022-11-04T13:35:24.602Z,94687.63
2022-11-04T13:38:03.825Z,94695.28
2022-11-04T13:40:42.883Z,94702.47
2022-11-04T13:43:24.604Z,94701.63
2022-11-04T13:45:55.634Z,94707.94
2022-11-04T13:48:26.283Z,94712.38
2022-11-04T13:51:01.102Z,94718.19
2022-11-04T13:53:48.425Z,94719.84
2022-11-04T13:56:34.176Z,94728.13
2022-11-04T13:59:18.833Z,94730.31
2022-11-04T14:01:47.292Z,94740.47
2022-11-04T14:04:29.607Z,94735.91
2022-11-04T14:07:00.236Z,94738.28
2022-11-04T14:09:52.962Z,94744.00
2022-11-04T14:12:28.850Z,94745.97
2022-11-04T14:15:06.004Z,94741.94
2022-11-04T14:17:58.502Z,94750.16
2022-11-04T14:20:29.283Z,94752.31
2022-11-04T14:22:58.834Z,94754.38
2022-11-04T14:25:34.389Z,94754.72
2022-11-04T14:28:16.163Z,94771.06
2022-11-04T14:30:48.564Z,94767.28
2022-11-04T14:33:40.051Z,94773.03
2022-11-04T14:36:33.123Z,94778.94
2022-11-04T14:39:06.193Z,94774.50
2022-11-04T14:42:00.502Z,94779.63
2022-11-04T14:44:33.304Z,94778.16
2022-11-04T14:47:07.908Z,94779.34
2022-11-04T14:49:48.303Z,94781.81
2022-11-04T14:52:21.806Z,94781.91
2022-11-04T14:54:52.802Z,94788.56
2022-11-04T14:57:22.842Z,94787.00
2022-11-04T14:59:50.483Z,94798.88
2022-11-04T15:02:22.074Z,94800.09
2022-11-04T15:04:55.875Z,94794.66
2022-11-04T15:07:41.408Z,94799.03
2022-11-04T15:10:23.963Z,94803.41
2022-11-04T15:12:57.987Z,94803.63
2022-11-04T15:15:34.184Z,94811.97
2022-11-04T15:18:06.882Z,94812.44
2022-11-04T15:20:40.423Z,94827.00
2022-11-04T15:23:15.106Z,94825.53
2022-11-04T15:25:49.803Z,94835.66
2022-11-04T15:28:22.642Z,94837.03
2022-11-04T15:31:03.182Z,94829.97
2022-11-04T15:33:36.230Z,94839.09
2022-11-04T15:36:04.184Z,94836.22
2022-11-04T15:38:33.228Z,94841.72
2022-11-04T15:41:02.906Z,94843.78
2022-11-04T15:43:31.624Z,94840.22
2022-11-04T15:45:58.803Z,94843.09
2022-11-04T15:48:29.770Z,94837.78
2022-11-04T15:51:21.635Z,94856.53
2022-11-04T15:53:55.803Z,94860.47
2022-11-04T15:56:27.383Z,94853.19
2022-11-04T15:58:58.908Z,94863.03
2022-11-04T16:01:27.061Z,94866.31
2022-11-04T16:03:57.871Z,94869.31
2022-11-04T16:06:36.993Z,94866.69
2022-11-04T16:09:20.424Z,94876.72
2022-11-04T16:12:12.906Z,94871.72
2022-11-04T16:14:47.922Z,94872.53
2022-11-04T16:17:15.025Z,94878.66
2022-11-04T16:19:47.502Z,94887.78
2022-11-04T16:22:24.064Z,94889.84
2022-11-04T16:24:54.144Z,94895.31
2022-11-04T16:27:24.030Z,94897.69
2022-11-04T16:30:17.466Z,94901.22
2022-11-04T16:32:46.623Z,94907.47
2022-11-04T16:35:18.063Z,94903.34
2022-11-04T16:37:45.583Z,94907.00
2022-11-04T16:40:13.165Z,94923.34
2022-11-04T16:42:40.942Z,94917.03
2022-11-04T16:45:21.983Z,94922.94
2022-11-04T16:47:49.604Z,94919.44
2022-11-04T16:50:18.143Z,94931.56
2022-11-04T16:52:45.623Z,94932.34
2022-11-04T16:55:14.504Z,94937.59
2022-11-04T16:57:42.484Z,94945.47
2022-11-04T17:00:19.382Z,94944.91
2022-11-04T17:02:46.704Z,94943.63
2022-11-04T17:05:14.122Z,94950.63
2022-11-04T17:07:53.314Z,94959.53
2022-11-04T17:10:26.151Z,94958.50
2022-11-04T17:12:53.361Z,94958.16
2022-11-04T17:15:22.052Z,94959.59
2022-11-04T17:17:49.518Z,94974.47
2022-11-04T17:20:18.558Z,94977.91
2022-11-04T17:22:47.229Z,94977.91
2022-11-04T17:25:19.183Z,94984.16
2022-11-04T17:27:46.318Z,94987.47
2022-11-04T17:30:13.959Z,94990.97
2022-11-04T17:32:42.979Z,94994.94
2022-11-04T17:35:10.660Z,94987.75
2022-11-04T17:37:38.202Z,94991.97
2022-11-04T17:40:07.198Z,94995.41
2022-11-04T17:42:34.341Z,95002.94
2022-11-04T17:45:01.581Z,95005.19
2022-11-04T17:47:28.640Z,95010.50
2022-11-04T17:49:57.204Z,95014.72
2022-11-04T17:52:24.298Z,95013.13
2022-11-04T17:54:51.378Z,95018.59
2022-11-04T17:57:18.561Z,95027.06
2022-11-04T17:59:45.658Z,95031.03
2022-11-04T18:02:12.997Z,95039.38
2022-11-04T18:04:40.218Z,95046.88
2022-11-04T18:07:08.799Z,95046.06
2022-11-04T18:09:35.939Z,95054.75
2022-11-04T18:12:03.162Z,95046.50
2022-11-04T18:14:30.297Z,95050.31
2022-11-04T18:16:57.317Z,95048.25
2022-11-04T18:19:24.456Z,95054.34
2022-11-04T18:21:51.476Z,95061.84
2022-11-04T18:24:20.047Z,95069.44
2022-11-04T18:26:47.276Z,95067.91
2022-11-04T18:29:14.376Z,95079.88
2022-11-04T18:31:47.809Z,95073.28
2022-11-04T18:34:17.296Z,95073.06
2022-11-04T18:36:44.571Z,95083.78
2022-11-04T18:39:14.456Z,95089.66
2022-11-04T18:41:43.638Z,95091.28
2022-11-04T18:44:16.018Z,95101.91
2022-11-04T18:46:43.941Z,95102.53
2022-11-04T18:49:12.097Z,95108.50
2022-11-04T18:51:39.958Z,95111.38
2022-11-04T18:54:08.699Z,95110.19
2022-11-04T18:56:35.839Z,95119.50
2022-11-04T18:59:05.002Z,95117.09
2022-11-04T19:01:34.196Z,95121.53
2022-11-04T19:04:01.599Z,95121.97
2022-11-04T19:06:31.318Z,95125.63
2022-11-04T19:09:05.012Z,95132.69
2022-11-04T19:11:41.738Z,95131.88
2022-11-04T19:14:13.319Z,95133.50
2022-11-04T19:16:41.460Z,95141.00
2022-11-04T19:19:12.278Z,95148.63
2022-11-04T19:21:39.358Z,95149.84
2022-11-04T19:24:07.819Z,95153.06
2022-11-04T19:26:36.121Z,95156.28
2022-11-04T19:29:05.199Z,95160.94
2022-11-04T19:31:33.937Z,95167.63
2022-11-04T19:34:02.618Z,95157.34
2022-11-04T19:36:31.737Z,95157.34
2022-11-04T19:38:58.758Z,95155.75
2022-11-04T19:41:25.864Z,95159.97
2022-11-04T19:43:52.940Z,95162.25
2022-11-04T19:46:20.124Z,95156.41
2022-11-04T19:48:48.616Z,95166.09
2022-11-04T19:51:15.816Z,95163.47
2022-11-04T19:53:42.898Z,95173.56
2022-11-04T19:56:13.863Z,95177.22
2022-11-04T19:58:41.097Z,95177.31
2022-11-04T20:01:09.098Z,95185.84
2022-11-04T20:03:36.621Z,95185.44
2022-11-04T20:06:06.837Z,95200.41
2022-11-04T20:08:36.118Z,95203.41
2022-11-04T20:11:04.897Z,95208.88
2022-11-04T20:13:32.702Z,95220.00
2022-11-04T20:15:59.876Z,95220.22
2022-11-04T20:18:27.261Z,95225.28
2022-11-04T20:20:54.318Z,95224.25
2022-11-04T20:23:22.936Z,95223.66
2022-11-04T20:25:49.997Z,95229.94
2022-11-04T20:28:17.076Z,95232.72
2022-11-04T20:30:44.211Z,95237.19
2022-11-04T20:33:11.364Z,95241.19
2022-11-04T20:35:38.536Z,95257.72
2022-11-04T20:38:05.625Z,95255.94
2022-11-04T20:40:34.177Z,95265.97
2022-11-04T20:43:01.379Z,95271.44
2022-11-04T20:45:28.979Z,95270.03
2022-11-04T20:47:56.100Z,95273.66
2022-11-04T20:50:23.218Z,95284.16
2022-11-04T20:52:50.238Z,95284.31
2022-11-04T20:55:17.559Z,95295.03
2022-11-04T20:57:46.178Z,95297.06
2022-11-04T21:00:14.399Z,95293.03
2022-11-04T21:02:41.770Z,95298.47
2022-11-04T21:05:09.458Z,95308.94
2022-11-04T21:07:55.617Z,95309.75
2022-11-04T21:10:23.578Z,95306.34
2022-11-04T21:12:54.916Z,95307.16
2022-11-04T21:15:24.540Z,95319.22
2022-11-04T21:17:51.628Z,95321.84
2022-11-04T21:20:19.537Z,95320.66
2022-11-04T21:22:46.616Z,95327.91
2022-11-04T21:25:13.764Z,95329.13
2022-11-04T21:27:41.300Z,95322.50
2022-11-04T21:30:32.996Z,95324.72
2022-11-04T21:33:05.725Z,95326.94
2022-11-04T21:35:35.431Z,95331.97
2022-11-04T21:38:03.739Z,95342.44
2022-11-04T21:40:32.046Z,95345.28
2022-11-04T21:42:59.400Z,95351.50
2022-11-04T21:45:27.940Z,95353.53
2022-11-04T21:47:55.000Z,95352.94
2022-11-04T21:50:22.058Z,95355.16
2022-11-04T21:52:49.078Z,95366.66
2022-11-04T21:55:20.318Z,95372.91
2022-11-04T21:57:47.819Z,95367.69
2022-11-04T22:00:16.079Z,95373.91
2022-11-04T22:02:44.857Z,95368.66
2022-11-04T22:05:17.638Z,95370.47
2022-11-04T22:07:45.160Z,95379.59
2022-11-04T22:10:12.280Z,95383.19
2022-11-04T22:12:39.359Z,95373.69
2022-11-04T22:15:08.160Z,95377.34
2022-11-04T22:17:35.237Z,95377.53
2022-11-04T22:20:04.703Z,95375.53
2022-11-04T22:22:32.199Z,95386.81
2022-11-04T22:24:59.216Z,95381.56
2022-11-04T22:27:26.283Z,95379.59
2022-11-04T22:29:53.337Z,95372.31
2022-11-04T22:32:20.407Z,95372.91
2022-11-04T22:34:47.597Z,95372.28
2022-11-04T22:37:16.099Z,95376.72
2022-11-04T22:39:43.260Z,95376.91
2022-11-04T22:42:10.456Z,95383.16
2022-11-04T22:44:37.516Z,95379.75
2022-11-04T22:47:04.856Z,95384.78
2022-11-04T22:49:31.878Z,95388.03
2022-11-04T22:51:59.017Z,95391.03
2022-11-04T22:54:27.572Z,95385.78
2022-11-04T22:56:54.572Z,95389.78
2022-11-04T22:59:21.912Z,95393.25
2022-11-04T23:01:49.095Z,95391.63
2022-11-04T23:04:16.192Z,95401.88
2022-11-04T23:06:43.295Z,95412.00
2022-11-04T23:09:12.958Z,95409.63
2022-11-04T23:11:41.781Z,95403.94
2022-11-04T23:14:19.841Z,95396.06
2022-11-04T23:16:50.732Z,95397.44
2022-11-04T23:19:17.812Z,95403.91
2022-11-04T23:21:44.856Z,95404.28
2022-11-04T23:24:11.873Z,95413.34
2022-11-04T23:26:39.333Z,95408.09
2022-11-04T23:29:08.295Z,95413.56
2022-11-04T23:31:35.334Z,95412.59
2022-11-04T23:34:02.493Z,95409.94
2022-11-04T23:36:29.534Z,95411.75
2022-11-04T23:38:56.633Z,95407.50
2022-11-04T23:41:23.752Z,95405.25
2022-11-04T23:43:51.032Z,95416.56
2022-11-04T23:46:19.553Z,95410.47
2022-11-04T23:48:46.595Z,95414.53
2022-11-04T23:51:13.615Z,95421.00
2022-11-04T23:53:41.274Z,95423.22
2022-11-04T23:56:10.925Z,95425.63
2022-11-04T23:58:38.353Z,95427.66
